createdAt,value
2023-03-03T00:01:35.367Z,98673.00
2023-03-03T00:04:03.395Z,98680.00
2023-03-03T00:06:31.516Z,98684.00
2023-03-03T00:08:59.523Z,98689.00
2023-03-03T00:11:27.658Z,98685.00
2023-03-03T00:13:56.163Z,98684.00
2023-03-03T00:16:26.678Z,98682.00
2023-03-03T00:18:54.934Z,98681.00
2023-03-03T00:21:29.398Z,98689.00
2023-03-03T00:24:04.426Z,98689.00
2023-03-03T00:26:36.669Z,98687.00
2023-03-03T00:29:04.901Z,98681.00
2023-03-03T00:31:35.491Z,98687.00
2023-03-03T00:34:12.870Z,98694.00
2023-03-03T00:36:41.017Z,98694.00
2023-03-03T00:39:27.806Z,98703.00
2023-03-03T00:41:55.928Z,98699.00
2023-03-03T00:44:40.193Z,98703.00
2023-03-03T00:47:32.065Z,98711.00
2023-03-03T00:50:30.856Z,98703.00
2023-03-03T00:53:04.930Z,98697.00
2023-03-03T00:55:33.235Z,98696.00
2023-03-03T00:58:01.304Z,98697.00
2023-03-03T01:00:29.466Z,98701.00
2023-03-03T01:02:58.924Z,98705.00
2023-03-03T01:05:27.198Z,98698.00
2023-03-03T01:07:55.378Z,98703.00
2023-03-03T01:10:23.509Z,98695.00
2023-03-03T01:12:51.530Z,98697.00
2023-03-03T01:15:19.564Z,98690.00
2023-03-03T01:17:47.598Z,98692.00
2023-03-03T01:20:17.095Z,98700.00
2023-03-03T01:22:45.358Z,98697.00
2023-03-03T01:25:13.382Z,98692.00
2023-03-03T01:27:41.438Z,98680.00
2023-03-03T01:30:10.463Z,98698.00
2023-03-03T01:32:38.572Z,98696.00
2023-03-03T01:35:07.332Z,98694.00
2023-03-03T01:37:37.088Z,98693.00
2023-03-03T01:40:05.495Z,98689.00
2023-03-03T01:42:33.576Z,98686.00
2023-03-03T01:45:19.592Z,98688.00
2023-03-03T01:47:50.167Z,98687.00
2023-03-03T01:50:21.941Z,98672.00
2023-03-03T01:52:51.387Z,98675.00
2023-03-03T01:55:21.080Z,98677.00
2023-03-03T01:57:50.644Z,98675.00
2023-03-03T02:00:18.895Z,98673.00
2023-03-03T02:02:46.948Z,98682.00
2023-03-03T02:05:14.998Z,98681.00
2023-03-03T02:07:42.983Z,98672.00
2023-03-03T02:10:13.565Z,98685.00
2023-03-03T02:12:44.091Z,98683.00
2023-03-03T02:15:20.157Z,98670.00
2023-03-03T02:17:48.374Z,98675.00
2023-03-03T02:20:19.081Z,98669.00
2023-03-03T02:22:50.344Z,98674.00
2023-03-03T02:25:23.756Z,98674.00
2023-03-03T02:27:53.150Z,98667.00
2023-03-03T02:30:22.532Z,98673.00
2023-03-03T02:32:50.562Z,98673.00
2023-03-03T02:35:30.607Z,98681.00
2023-03-03T02:38:01.281Z,98690.00
2023-03-03T02:40:29.449Z,98671.00
2023-03-03T02:42:58.838Z,98669.00
2023-03-03T02:45:26.911Z,98678.00
2023-03-03T02:47:55.022Z,98684.00
2023-03-03T02:50:23.091Z,98669.00
2023-03-03T02:52:51.162Z,98678.00
2023-03-03T02:55:19.287Z,98684.00
2023-03-03T02:57:47.392Z,98690.00
2023-03-03T03:00:17.286Z,98692.00
2023-03-03T03:02:45.438Z,98693.00
2023-03-03T03:05:13.548Z,98693.00
2023-03-03T03:07:41.608Z,98705.00
2023-03-03T03:10:11.300Z,98691.00
2023-03-03T03:12:39.397Z,98688.00
2023-03-03T03:15:09.983Z,98692.00
2023-03-03T03:17:39.766Z,98694.00
2023-03-03T03:20:08.375Z,98695.00
2023-03-03T03:22:36.445Z,98696.00
2023-03-03T03:25:04.658Z,98697.00
2023-03-03T03:27:32.730Z,98698.00
2023-03-03T03:30:00.811Z,98694.00
2023-03-03T03:32:28.945Z,98697.00
2023-03-03T03:34:58.453Z,98714.00
2023-03-03T03:37:26.517Z,98688.00
2023-03-03T03:39:54.879Z,98677.00
2023-03-03T03:42:22.940Z,98682.00
2023-03-03T03:44:51.693Z,98671.00
2023-03-03T03:47:22.767Z,98682.00
2023-03-03T03:49:50.809Z,98697.00
2023-03-03T03:52:20.241Z,98695.00
2023-03-03T03:54:48.322Z,98689.00
2023-03-03T03:57:16.387Z,98687.00
2023-03-03T03:59:44.685Z,98699.00
2023-03-03T04:02:12.924Z,98695.00
2023-03-03T04:04:41.061Z,98691.00
2023-03-03T04:07:11.437Z,98698.00
2023-03-03T04:09:41.157Z,98709.00
2023-03-03T04:12:09.242Z,98703.00
2023-03-03T04:14:37.524Z,98697.00
2023-03-03T04:17:05.586Z,98707.00
2023-03-03T04:19:33.663Z,98697.00
2023-03-03T04:22:01.719Z,98688.00
2023-03-03T04:24:29.806Z,98694.00
2023-03-03T04:26:59.291Z,98695.00
2023-03-03T04:29:27.371Z,98698.00
2023-03-03T04:31:55.465Z,98698.00
2023-03-03T04:34:23.612Z,98711.00
2023-03-03T04:36:51.728Z,98711.00
2023-03-03T04:39:19.794Z,98708.00
2023-03-03T04:41:47.865Z,98712.00
2023-03-03T04:44:17.311Z,98722.00
2023-03-03T04:46:45.370Z,98719.00
2023-03-03T04:49:13.432Z,98721.00
2023-03-03T04:51:41.533Z,98709.00
2023-03-03T04:54:10.122Z,98718.00
2023-03-03T04:56:38.250Z,98720.00
2023-03-03T04:59:09.194Z,98722.00
2023-03-03T05:01:38.596Z,98704.00
2023-03-03T05:04:06.784Z,98712.00
2023-03-03T05:06:34.927Z,98711.00
2023-03-03T05:09:03.159Z,98715.00
2023-03-03T05:11:32.601Z,98721.00
2023-03-03T05:14:00.693Z,98721.00
2023-03-03T05:16:28.756Z,98723.00
2023-03-03T05:18:58.254Z,98728.00
2023-03-03T05:21:26.312Z,98714.00
2023-03-03T05:23:54.375Z,98711.00
2023-03-03T05:26:22.453Z,98733.00
2023-03-03T05:28:50.493Z,98738.00
2023-03-03T05:31:18.593Z,98740.00
2023-03-03T05:33:46.686Z,98735.00
2023-03-03T05:36:16.148Z,98734.00
2023-03-03T05:38:44.232Z,98728.00
2023-03-03T05:41:12.275Z,98720.00
2023-03-03T05:43:40.700Z,98727.00
2023-03-03T05:46:09.072Z,98724.00
2023-03-03T05:48:37.247Z,98727.00
2023-03-03T05:51:05.615Z,98737.00
2023-03-03T05:53:35.092Z,98723.00
2023-03-03T05:56:03.158Z,98734.00
2023-03-03T05:58:31.432Z,98727.00
2023-03-03T06:00:59.511Z,98746.00
2023-03-03T06:03:27.614Z,98747.00
2023-03-03T06:05:55.725Z,98740.00
2023-03-03T06:08:23.856Z,98749.00
2023-03-03T06:10:53.295Z,98751.00
2023-03-03T06:13:21.340Z,98755.00
2023-03-03T06:15:49.589Z,98771.00
2023-03-03T06:18:17.649Z,98758.00
2023-03-03T06:20:52.237Z,98772.00
2023-03-03T06:23:20.352Z,98761.00
2023-03-03T06:25:48.406Z,98780.00
2023-03-03T06:28:17.839Z,98772.00
2023-03-03T06:30:45.933Z,98773.00
2023-03-03T06:33:13.970Z,98782.00
2023-03-03T06:35:42.059Z,98785.00
2023-03-03T06:38:10.244Z,98798.00
2023-03-03T06:40:38.347Z,98780.00
2023-03-03T06:43:06.404Z,98781.00
2023-03-03T06:45:35.918Z,98791.00
2023-03-03T06:48:04.150Z,98787.00
2023-03-03T06:50:32.314Z,98785.00
2023-03-03T06:53:03.459Z,98797.00
2023-03-03T06:55:31.631Z,98798.00
2023-03-03T06:58:00.612Z,98801.00
2023-03-03T07:00:31.083Z,98808.00
2023-03-03T07:03:01.923Z,98801.00
2023-03-03T07:05:30.177Z,98808.00
2023-03-03T07:07:58.234Z,98820.00
2023-03-03T07:10:27.059Z,98825.00
2023-03-03T07:12:55.266Z,98817.00
2023-03-03T07:15:24.567Z,98824.00
2023-03-03T07:17:55.805Z,98841.00
2023-03-03T07:20:29.426Z,98835.00
2023-03-03T07:22:57.530Z,98834.00
2023-03-03T07:25:30.383Z,98845.00
2023-03-03T07:28:00.784Z,98846.00
2023-03-03T07:30:29.569Z,98849.00
2023-03-03T07:32:58.454Z,98864.00
2023-03-03T07:35:48.967Z,98861.00
2023-03-03T07:38:27.725Z,98860.00
2023-03-03T07:40:56.402Z,98890.00
2023-03-03T07:43:36.997Z,98867.00
2023-03-03T07:46:24.937Z,98867.00
2023-03-03T07:48:53.138Z,98870.00
2023-03-03T07:51:25.379Z,98881.00
2023-03-03T07:53:54.114Z,98889.00
2023-03-03T07:56:28.965Z,98883.00
2023-03-03T07:58:57.328Z,98901.00
2023-03-03T08:01:40.468Z,98890.00
2023-03-03T08:04:16.626Z,98878.00
2023-03-03T08:06:53.170Z,98890.00
2023-03-03T08:09:42.490Z,98889.00
2023-03-03T08:12:41.931Z,98891.00
2023-03-03T08:15:21.648Z,98867.00
2023-03-03T08:17:49.931Z,98882.00
2023-03-03T08:20:52.092Z,98883.00
2023-03-03T08:23:21.849Z,98884.00
2023-03-03T08:25:50.627Z,98885.00
2023-03-03T08:28:18.770Z,98883.00
2023-03-03T08:30:46.942Z,98889.00
2023-03-03T08:33:15.241Z,98885.00
2023-03-03T08:35:43.711Z,98890.00
2023-03-03T08:38:12.300Z,98893.00
2023-03-03T08:40:41.725Z,98895.00
2023-03-03T08:43:09.992Z,98897.00
2023-03-03T08:45:38.063Z,98888.00
2023-03-03T08:48:06.613Z,98884.00
2023-03-03T08:50:34.655Z,98882.00
2023-03-03T08:53:02.722Z,98879.00
2023-03-03T08:55:30.823Z,98891.00
2023-03-03T08:58:00.214Z,98889.00
2023-03-03T09:00:28.311Z,98887.00
2023-03-03T09:02:56.423Z,98896.00
2023-03-03T09:05:25.089Z,98903.00
2023-03-03T09:07:53.263Z,98896.00
2023-03-03T09:10:27.662Z,98891.00
2023-03-03T09:12:58.337Z,98891.00
2023-03-03T09:15:28.745Z,98893.00
2023-03-03T09:17:58.422Z,98896.00
2023-03-03T09:20:33.694Z,98896.00
2023-03-03T09:23:01.834Z,98895.00
2023-03-03T09:25:33.313Z,98906.00
2023-03-03T09:28:02.179Z,98894.00
2023-03-03T09:30:39.485Z,98902.00
2023-03-03T09:33:27.282Z,98890.00
2023-03-03T09:36:05.390Z,98902.00
2023-03-03T09:38:34.116Z,98898.00
2023-03-03T09:41:25.604Z,98912.00
2023-03-03T09:44:02.965Z,98906.00
2023-03-03T09:46:36.004Z,98902.00
2023-03-03T09:49:07.402Z,98916.00
2023-03-03T09:51:52.819Z,98917.00
2023-03-03T09:54:37.755Z,98924.00
2023-03-03T09:57:08.571Z,98912.00
2023-03-03T09:59:43.243Z,98911.00
2023-03-03T10:02:23.512Z,98915.00
2023-03-03T10:05:14.324Z,98905.00
2023-03-03T10:07:47.112Z,98915.00
2023-03-03T10:10:22.834Z,98908.00
2023-03-03T10:12:58.358Z,98912.00
2023-03-03T10:15:35.470Z,98919.00
2023-03-03T10:18:13.160Z,98925.00
2023-03-03T10:20:54.248Z,98926.00
2023-03-03T10:23:23.418Z,98929.00
2023-03-03T10:25:57.690Z,98927.00
2023-03-03T10:28:42.710Z,98930.00
2023-03-03T10:31:17.653Z,98934.00
2023-03-03T10:33:50.753Z,98930.00
2023-03-03T10:36:35.757Z,98925.00
2023-03-03T10:39:11.518Z,98927.00
2023-03-03T10:41:45.224Z,98927.00
2023-03-03T10:44:48.930Z,98926.00
2023-03-03T10:47:27.835Z,98932.00
2023-03-03T10:50:02.990Z,98939.00
2023-03-03T10:52:34.953Z,98937.00
2023-03-03T10:55:29.689Z,98937.00
2023-03-03T10:58:20.331Z,98935.00
2023-03-03T11:00:50.497Z,98932.00
2023-03-03T11:03:50.230Z,98925.00
2023-03-03T11:06:20.535Z,98923.00
2023-03-03T11:08:51.008Z,98918.00
2023-03-03T11:11:21.399Z,98918.00
2023-03-03T11:13:51.016Z,98917.00
2023-03-03T11:16:26.949Z,98916.00
2023-03-03T11:19:03.681Z,98922.00
2023-03-03T11:21:34.798Z,98910.00
2023-03-03T11:24:08.245Z,98915.00
2023-03-03T11:26:44.132Z,98912.00
2023-03-03T11:29:24.796Z,98903.00
2023-03-03T11:31:54.800Z,98908.00
2023-03-03T11:34:42.293Z,98900.00
2023-03-03T11:37:13.347Z,98899.00
2023-03-03T11:39:41.628Z,98899.00
2023-03-03T11:42:13.077Z,98892.00
2023-03-03T11:44:42.796Z,98884.00
2023-03-03T11:47:14.752Z,98892.00
2023-03-03T11:49:44.829Z,98881.00
2023-03-03T11:52:22.785Z,98886.00
2023-03-03T11:54:53.254Z,98867.00
2023-03-03T11:57:22.822Z,98873.00
2023-03-03T12:00:09.587Z,98861.00
2023-03-03T12:02:51.908Z,98860.00
2023-03-03T12:05:29.181Z,98859.00
2023-03-03T12:08:00.908Z,98857.00
2023-03-03T12:10:29.993Z,98849.00
2023-03-03T12:13:02.772Z,98844.00
2023-03-03T12:15:34.742Z,98840.00
2023-03-03T12:18:27.475Z,98843.00
2023-03-03T12:21:02.665Z,98839.00
2023-03-03T12:23:43.042Z,98837.00
2023-03-03T12:26:13.019Z,98847.00
2023-03-03T12:28:43.311Z,98839.00
2023-03-03T12:31:18.370Z,98836.00
2023-03-03T12:33:54.150Z,98828.00
2023-03-03T12:36:46.549Z,98836.00
2023-03-03T12:39:32.698Z,98834.00
2023-03-03T12:42:06.159Z,98834.00
2023-03-03T12:44:36.766Z,98841.00
2023-03-03T12:47:07.449Z,98845.00
2023-03-03T12:49:44.142Z,98838.00
2023-03-03T12:52:20.779Z,98828.00
2023-03-03T12:54:58.569Z,98826.00
2023-03-03T12:57:30.395Z,98821.00
2023-03-03T13:00:27.144Z,98816.00
2023-03-03T13:03:00.185Z,98805.00
2023-03-03T13:05:30.608Z,98807.00
2023-03-03T13:08:12.068Z,98813.00
2023-03-03T13:10:43.160Z,98817.00
2023-03-03T13:13:13.130Z,98816.00
2023-03-03T13:15:54.886Z,98814.00
2023-03-03T13:18:30.954Z,98812.00
2023-03-03T13:21:01.218Z,98806.00
2023-03-03T13:23:38.254Z,98808.00
2023-03-03T13:26:09.452Z,98813.00
2023-03-03T13:28:38.505Z,98812.00
2023-03-03T13:31:09.908Z,98808.00
2023-03-03T13:33:38.066Z,98813.00
2023-03-03T13:36:08.607Z,98802.00
2023-03-03T13:38:38.202Z,98801.00
2023-03-03T13:41:11.100Z,98798.00
2023-03-03T13:43:44.345Z,98808.00
2023-03-03T13:46:16.068Z,98794.00
2023-03-03T13:48:49.767Z,98792.00
2023-03-03T13:51:24.856Z,98802.00
2023-03-03T13:53:54.925Z,98795.00
2023-03-03T13:56:37.349Z,98807.00
2023-03-03T13:59:10.242Z,98801.00
2023-03-03T14:01:46.065Z,98794.00
2023-03-03T14:04:15.320Z,98784.00
2023-03-03T14:06:43.469Z,98784.00
2023-03-03T14:09:18.925Z,98796.00
2023-03-03T14:11:50.859Z,98774.00
2023-03-03T14:14:40.665Z,98794.00
2023-03-03T14:17:12.476Z,98796.00
2023-03-03T14:19:41.800Z,98795.00
2023-03-03T14:22:23.595Z,98782.00
2023-03-03T14:25:02.988Z,98786.00
2023-03-03T14:27:37.238Z,98787.00
2023-03-03T14:30:35.234Z,98774.00
2023-03-03T14:33:15.960Z,98776.00
2023-03-03T14:35:44.871Z,98772.00
2023-03-03T14:38:14.483Z,98771.00
2023-03-03T14:40:45.535Z,98775.00
2023-03-03T14:43:25.817Z,98765.00
2023-03-03T14:45:54.515Z,98773.00
2023-03-03T14:48:23.405Z,98771.00
2023-03-03T14:50:52.508Z,98771.00
2023-03-03T14:53:33.025Z,98747.00
2023-03-03T14:56:16.655Z,98769.00
2023-03-03T14:58:46.127Z,98765.00
2023-03-03T15:01:22.668Z,98771.00
2023-03-03T15:03:52.596Z,98756.00
2023-03-03T15:06:32.045Z,98754.00
2023-03-03T15:09:22.781Z,98755.00
2023-03-03T15:11:52.716Z,98755.00
2023-03-03T15:14:26.610Z,98749.00
2023-03-03T15:16:54.762Z,98753.00
2023-03-03T15:19:32.304Z,98762.00
2023-03-03T15:22:05.403Z,98750.00
2023-03-03T15:24:38.406Z,98747.00
2023-03-03T15:27:07.996Z,98754.00
2023-03-03T15:29:38.550Z,98750.00
2023-03-03T15:32:15.972Z,98741.00
2023-03-03T15:34:45.603Z,98752.00
2023-03-03T15:37:33.999Z,98755.00
2023-03-03T15:40:06.103Z,98754.00
2023-03-03T15:42:35.914Z,98753.00
2023-03-03T15:45:09.052Z,98762.00
2023-03-03T15:47:54.652Z,98751.00
2023-03-03T15:50:27.839Z,98739.00
2023-03-03T15:53:01.814Z,98758.00
2023-03-03T15:55:37.371Z,98760.00
2023-03-03T15:58:37.904Z,98752.00
2023-03-03T16:01:10.750Z,98755.00
2023-03-03T16:03:39.621Z,98759.00
2023-03-03T16:06:09.624Z,98743.00
2023-03-03T16:08:43.400Z,98752.00
2023-03-03T16:11:13.867Z,98756.00
2023-03-03T16:13:52.318Z,98756.00
2023-03-03T16:16:32.538Z,98758.00
2023-03-03T16:19:07.799Z,98762.00
2023-03-03T16:21:48.639Z,98759.00
2023-03-03T16:24:23.129Z,98759.00
2023-03-03T16:26:54.316Z,98756.00
2023-03-03T16:29:36.128Z,98769.00
2023-03-03T16:32:06.718Z,98774.00
2023-03-03T16:34:37.743Z,98775.00
2023-03-03T16:37:12.642Z,98772.00
2023-03-03T16:39:56.654Z,98782.00
2023-03-03T16:42:27.939Z,98791.00
2023-03-03T16:45:21.302Z,98792.00
2023-03-03T16:48:04.350Z,98783.00
2023-03-03T16:50:37.866Z,98786.00
2023-03-03T16:53:11.770Z,98782.00
2023-03-03T16:55:43.799Z,98794.00
2023-03-03T16:58:20.970Z,98792.00
2023-03-03T17:00:53.215Z,98795.00
2023-03-03T17:03:47.132Z,98802.00
2023-03-03T17:06:17.489Z,98803.00
2023-03-03T17:09:00.290Z,98814.00
2023-03-03T17:11:32.078Z,98805.00
2023-03-03T17:14:21.693Z,98813.00
2023-03-03T17:16:54.309Z,98811.00
2023-03-03T17:19:41.431Z,98822.00
2023-03-03T17:22:19.115Z,98826.00
2023-03-03T17:24:52.359Z,98833.00
2023-03-03T17:27:23.967Z,98831.00
2023-03-03T17:29:59.577Z,98832.00
2023-03-03T17:32:45.222Z,98839.00
2023-03-03T17:35:22.561Z,98830.00
2023-03-03T17:37:54.359Z,98833.00
2023-03-03T17:40:31.205Z,98845.00
2023-03-03T17:43:00.740Z,98847.00
2023-03-03T17:45:29.182Z,98845.00
2023-03-03T17:48:10.750Z,98855.00
2023-03-03T17:51:07.010Z,98863.00
2023-03-03T17:53:42.336Z,98863.00
2023-03-03T17:56:16.053Z,98858.00
2023-03-03T17:59:09.472Z,98876.00
2023-03-03T18:01:46.522Z,98879.00
2023-03-03T18:04:45.369Z,98870.00
2023-03-03T18:07:42.734Z,98868.00
2023-03-03T18:10:49.619Z,98872.00
2023-03-03T18:13:30.078Z,98869.00
2023-03-03T18:16:12.069Z,98875.00
2023-03-03T18:18:55.526Z,98873.00
2023-03-03T18:21:24.044Z,98871.00
2023-03-03T18:23:53.608Z,98881.00
2023-03-03T18:26:36.112Z,98881.00
2023-03-03T18:29:10.995Z,98891.00
2023-03-03T18:32:02.575Z,98894.00
2023-03-03T18:34:38.171Z,98892.00
2023-03-03T18:37:09.874Z,98894.00
2023-03-03T18:39:41.157Z,98894.00
2023-03-03T18:42:38.076Z,98878.00
2023-03-03T18:45:13.843Z,98900.00
2023-03-03T18:48:04.376Z,98902.00
2023-03-03T18:50:33.157Z,98895.00
2023-03-03T18:53:29.189Z,98905.00
2023-03-03T18:55:59.204Z,98909.00
2023-03-03T18:58:38.589Z,98913.00
2023-03-03T19:01:41.806Z,98901.00
2023-03-03T19:04:25.213Z,98898.00
2023-03-03T19:07:12.266Z,98906.00
2023-03-03T19:09:53.191Z,98903.00
2023-03-03T19:12:43.801Z,98898.00
2023-03-03T19:15:45.781Z,98909.00
2023-03-03T19:18:19.036Z,98890.00
2023-03-03T19:20:52.868Z,98879.00
2023-03-03T19:23:22.149Z,98905.00
2023-03-03T19:26:21.295Z,98907.00
2023-03-03T19:28:51.528Z,98919.00
2023-03-03T19:31:24.565Z,98908.00
2023-03-03T19:33:56.750Z,98909.00
2023-03-03T19:36:51.960Z,98919.00
2023-03-03T19:39:36.433Z,98910.00
2023-03-03T19:42:08.503Z,98928.00
2023-03-03T19:44:49.524Z,98917.00
2023-03-03T19:47:23.627Z,98923.00
2023-03-03T19:49:59.621Z,98913.00
2023-03-03T19:52:31.465Z,98914.00
2023-03-03T19:55:24.681Z,98920.00
2023-03-03T19:57:59.121Z,98926.00
2023-03-03T20:00:33.645Z,98925.00
2023-03-03T20:03:17.530Z,98930.00
2023-03-03T20:05:46.524Z,98935.00
2023-03-03T20:08:16.682Z,98937.00
2023-03-03T20:10:47.256Z,98938.00
2023-03-03T20:13:25.883Z,98936.00
2023-03-03T20:15:58.271Z,98943.00
2023-03-03T20:18:47.904Z,98943.00
2023-03-03T20:21:24.829Z,98945.00
2023-03-03T20:24:00.267Z,98961.00
2023-03-03T20:26:30.904Z,98960.00
2023-03-03T20:29:06.118Z,98966.00
2023-03-03T20:31:37.008Z,98960.00
2023-03-03T20:34:11.095Z,98964.00
2023-03-03T20:36:44.250Z,98968.00
2023-03-03T20:39:14.151Z,98961.00
2023-03-03T20:41:51.006Z,98968.00
2023-03-03T20:44:24.988Z,98965.00
2023-03-03T20:46:59.293Z,98979.00
2023-03-03T20:49:37.002Z,98974.00
2023-03-03T20:52:07.039Z,98976.00
2023-03-03T20:54:39.483Z,98976.00
2023-03-03T20:57:09.256Z,98974.00
2023-03-03T20:59:39.728Z,98976.00
2023-03-03T21:02:14.613Z,98973.00
2023-03-03T21:04:42.832Z,98972.00
2023-03-03T21:07:10.878Z,98973.00
2023-03-03T21:09:39.845Z,98964.00
2023-03-03T21:12:12.503Z,98974.00
2023-03-03T21:14:40.648Z,98973.00
2023-03-03T21:17:26.185Z,98979.00
2023-03-03T21:19:54.263Z,98978.00
2023-03-03T21:22:22.497Z,98975.00
2023-03-03T21:24:51.736Z,98975.00
2023-03-03T21:27:27.654Z,98973.00
2023-03-03T21:30:06.968Z,98974.00
2023-03-03T21:32:38.418Z,98982.00
2023-03-03T21:35:07.458Z,98974.00
2023-03-03T21:37:49.830Z,98963.00
2023-03-03T21:40:20.961Z,98965.00
2023-03-03T21:42:49.695Z,98969.00
2023-03-03T21:45:20.445Z,98961.00
2023-03-03T21:47:49.901Z,98965.00
2023-03-03T21:50:20.308Z,98964.00
2023-03-03T21:52:48.458Z,98968.00
2023-03-03T21:55:16.754Z,98962.00
2023-03-03T21:57:44.869Z,98960.00
2023-03-03T22:00:13.912Z,98968.00
2023-03-03T22:02:41.996Z,98959.00
2023-03-03T22:05:11.586Z,98962.00
2023-03-03T22:07:39.718Z,98959.00
2023-03-03T22:10:10.100Z,98961.00
2023-03-03T22:12:38.212Z,98972.00
2023-03-03T22:15:07.400Z,98956.00
2023-03-03T22:17:35.441Z,98956.00
2023-03-03T22:20:03.526Z,98960.00
2023-03-03T22:22:33.001Z,98968.00
2023-03-03T22:25:01.042Z,98967.00
2023-03-03T22:27:29.102Z,98964.00
2023-03-03T22:29:57.145Z,98959.00
2023-03-03T22:32:25.275Z,98963.00
2023-03-03T22:34:53.460Z,98960.00
2023-03-03T22:37:21.605Z,98960.00
2023-03-03T22:39:51.014Z,98971.00
2023-03-03T22:42:19.067Z,98968.00
2023-03-03T22:44:47.124Z,98973.00
2023-03-03T22:47:15.221Z,98968.00
2023-03-03T22:49:43.278Z,98973.00
2023-03-03T22:52:11.745Z,98977.00
2023-03-03T22:54:39.792Z,98960.00
2023-03-03T22:57:09.243Z,98974.00
2023-03-03T22:59:37.379Z,98956.00
2023-03-03T23:02:08.589Z,98974.00
2023-03-03T23:04:36.800Z,98979.00
2023-03-03T23:07:05.408Z,98973.00
2023-03-03T23:09:33.510Z,98971.00
2023-03-03T23:12:02.025Z,98966.00
2023-03-03T23:14:31.448Z,98965.00
2023-03-03T23:16:59.536Z,98971.00
2023-03-03T23:19:27.727Z,98967.00
2023-03-03T23:21:55.846Z,98968.00
2023-03-03T23:24:23.931Z,98959.00
2023-03-03T23:26:56.841Z,98958.00
2023-03-03T23:29:24.986Z,98970.00
2023-03-03T23:31:54.583Z,98966.00
2023-03-03T23:34:22.759Z,98968.00
2023-03-03T23:36:51.238Z,98961.00
2023-03-03T23:39:19.333Z,98965.00
2023-03-03T23:41:47.406Z,98972.00
2023-03-03T23:44:15.459Z,98965.00
2023-03-03T23:46:43.721Z,98973.00
2023-03-03T23:49:13.178Z,98963.00
2023-03-03T23:51:41.287Z,98966.00
2023-03-03T23:54:09.489Z,98973.00
2023-03-03T23:56:37.602Z,98969.00
2023-03-03T23:59:05.658Z,98972.00
